createdAt,value
2018-12-25T00:02:07.570Z,5.40
2018-12-25T00:04:54.632Z,5.30
2018-12-25T00:07:41.764Z,5.20
2018-12-25T00:10:28.481Z,5.20
2018-12-25T00:13:15.847Z,5.20
2018-12-25T00:16:02.907Z,5.30
2018-12-25T00:18:50.106Z,5.30
2018-12-25T00:21:37.027Z,5.30
2018-12-25T00:24:24.274Z,5.30
2018-12-25T00:27:11.247Z,5.20
2018-12-25T00:29:58.111Z,4.80
2018-12-25T00:32:44.968Z,4.50
2018-12-25T00:35:32.350Z,4.20
2018-12-25T00:38:19.531Z,4.10
2018-12-25T00:41:06.622Z,4.30
2018-12-25T00:43:53.441Z,4.40
2018-12-25T00:46:40.272Z,4.50
2018-12-25T00:49:27.467Z,4.60
2018-12-25T00:52:14.182Z,4.70
2018-12-25T00:54:59.688Z,4.60
2018-12-25T00:57:53.946Z,4.70
2018-12-25T01:00:40.679Z,4.60
2018-12-25T01:03:27.679Z,4.70
2018-12-25T01:06:02.928Z,4.60
2018-12-25T01:08:49.934Z,4.60
2018-12-25T01:11:36.611Z,4.60
2018-12-25T01:14:23.683Z,4.20
2018-12-25T01:17:10.731Z,3.90
2018-12-25T01:19:57.909Z,3.90
2018-12-25T01:22:45.703Z,4.10
2018-12-25T01:25:32.632Z,4.30
2018-12-25T01:28:19.508Z,4.40
2018-12-25T01:31:06.420Z,4.40
2018-12-25T01:33:53.804Z,4.50
2018-12-25T01:36:40.905Z,4.50
2018-12-25T01:39:27.954Z,4.50
2018-12-25T01:42:14.579Z,4.50
2018-12-25T01:45:01.851Z,4.50
2018-12-25T01:47:49.127Z,4.40
2018-12-25T01:50:36.491Z,4.40
2018-12-25T01:53:23.042Z,4.40
2018-12-25T01:56:10.339Z,4.40
2018-12-25T01:58:56.906Z,4.30
2018-12-25T02:01:43.967Z,4.30
2018-12-25T02:04:30.998Z,4.20
2018-12-25T02:07:18.354Z,3.90
2018-12-25T02:10:04.806Z,3.50
2018-12-25T02:12:51.727Z,3.80
2018-12-25T02:15:38.874Z,4.00
2018-12-25T02:18:25.989Z,4.10
2018-12-25T02:21:12.847Z,4.10
2018-12-25T02:24:00.074Z,4.10
2018-12-25T02:26:47.018Z,4.00
2018-12-25T02:29:34.192Z,4.10
2018-12-25T02:32:21.061Z,4.00
2018-12-25T02:35:08.376Z,4.00
2018-12-25T02:37:55.610Z,4.00
2018-12-25T02:40:42.263Z,4.00
2018-12-25T02:43:29.048Z,4.10
2018-12-25T02:46:16.034Z,4.00
2018-12-25T02:49:03.244Z,3.90
2018-12-25T02:51:50.818Z,4.00
2018-12-25T02:54:37.747Z,3.90
2018-12-25T02:57:24.854Z,4.00
2018-12-25T03:00:11.903Z,4.00
2018-12-25T03:02:59.150Z,3.90
2018-12-25T03:05:46.334Z,4.00
2018-12-25T03:08:32.769Z,4.00
2018-12-25T03:11:20.067Z,3.90
2018-12-25T03:14:06.962Z,3.80
2018-12-25T03:16:54.119Z,3.80
2018-12-25T03:19:41.387Z,3.80
2018-12-25T03:22:28.560Z,3.80
2018-12-25T03:25:15.877Z,3.80
2018-12-25T03:28:02.627Z,3.80
2018-12-25T03:30:49.570Z,3.80
2018-12-25T03:33:37.092Z,3.70
2018-12-25T03:36:23.912Z,3.70
2018-12-25T03:39:11.067Z,3.70
2018-12-25T03:41:58.017Z,3.70
2018-12-25T03:44:45.440Z,3.60
2018-12-25T03:47:32.360Z,3.70
2018-12-25T03:50:19.395Z,3.70
2018-12-25T03:53:06.484Z,3.70
2018-12-25T03:55:53.402Z,3.60
2018-12-25T03:58:40.442Z,3.60
2018-12-25T04:01:27.425Z,3.60
2018-12-25T04:04:14.781Z,3.60
2018-12-25T04:07:01.774Z,3.60
2018-12-25T04:09:48.372Z,3.70
2018-12-25T04:12:35.652Z,3.60
2018-12-25T04:15:22.955Z,3.50
2018-12-25T04:18:09.864Z,3.40
2018-12-25T04:20:56.702Z,3.50
2018-12-25T04:23:44.070Z,3.40
2018-12-25T04:26:31.483Z,3.30
2018-12-25T04:29:18.659Z,3.10
2018-12-25T04:32:05.562Z,2.70
2018-12-25T04:34:52.399Z,2.60
2018-12-25T04:37:39.796Z,2.70
2018-12-25T04:40:26.912Z,2.80
2018-12-25T04:43:14.071Z,2.70
2018-12-25T04:46:01.262Z,2.60
2018-12-25T04:48:48.469Z,2.80
2018-12-25T04:51:35.887Z,2.90
2018-12-25T04:54:22.952Z,2.90
2018-12-25T04:57:10.174Z,3.00
2018-12-25T04:59:57.391Z,3.00
2018-12-25T05:02:44.099Z,3.00
2018-12-25T05:05:30.675Z,3.00
2018-12-25T05:08:17.994Z,2.90
2018-12-25T05:11:04.938Z,2.90
2018-12-25T05:13:51.446Z,2.90
2018-12-25T05:16:38.343Z,3.00
2018-12-25T05:19:25.639Z,2.90
2018-12-25T05:22:13.242Z,2.90
2018-12-25T05:25:00.308Z,2.90
2018-12-25T05:27:47.404Z,2.80
2018-12-25T05:30:34.323Z,2.80
2018-12-25T05:33:21.599Z,2.80
2018-12-25T05:36:08.755Z,2.80
2018-12-25T05:38:55.838Z,2.80
2018-12-25T05:41:42.694Z,2.80
2018-12-25T05:44:29.987Z,2.70
2018-12-25T05:47:20.207Z,2.80
2018-12-25T05:50:07.603Z,2.80
2018-12-25T05:52:54.846Z,2.80
2018-12-25T05:55:41.918Z,2.80
2018-12-25T05:58:28.683Z,2.80
2018-12-25T06:01:15.727Z,2.90
2018-12-25T06:04:02.910Z,2.80
2018-12-25T06:06:49.771Z,2.80
2018-12-25T06:09:36.994Z,2.80
2018-12-25T06:12:23.699Z,2.70
2018-12-25T06:15:11.051Z,2.60
2018-12-25T06:17:58.149Z,2.60
2018-12-25T06:20:44.759Z,2.60
2018-12-25T06:23:31.642Z,2.60
2018-12-25T06:26:18.615Z,2.50
2018-12-25T06:29:05.835Z,2.50
2018-12-25T06:31:52.430Z,2.50
2018-12-25T06:34:39.342Z,2.50
2018-12-25T06:37:26.431Z,2.50
2018-12-25T06:40:13.442Z,2.50
2018-12-25T06:43:00.939Z,2.40
2018-12-25T06:45:47.968Z,2.40
2018-12-25T06:48:34.786Z,2.50
2018-12-25T06:51:10.167Z,2.30
2018-12-25T06:54:04.482Z,2.20
2018-12-25T06:56:50.986Z,2.20
2018-12-25T06:59:37.959Z,2.00
2018-12-25T07:02:25.271Z,1.90
2018-12-25T07:05:12.243Z,1.90
2018-12-25T07:07:59.203Z,2.30
2018-12-25T07:10:46.081Z,2.30
2018-12-25T07:13:33.469Z,2.20
2018-12-25T07:16:20.810Z,2.20
2018-12-25T07:19:08.213Z,2.20
2018-12-25T07:21:55.339Z,2.30
2018-12-25T07:24:42.491Z,2.20
2018-12-25T07:27:29.776Z,2.20
2018-12-25T07:30:16.820Z,2.10
2018-12-25T07:33:04.132Z,2.10
2018-12-25T07:35:51.350Z,2.10
2018-12-25T07:38:38.126Z,1.90
2018-12-25T07:41:25.016Z,1.50
2018-12-25T07:44:12.299Z,1.70
2018-12-25T07:46:59.351Z,1.60
2018-12-25T07:49:46.007Z,1.70
2018-12-25T07:52:33.151Z,1.80
2018-12-25T07:55:20.059Z,1.70
2018-12-25T07:58:07.189Z,1.50
2018-12-25T08:00:54.128Z,1.40
2018-12-25T08:03:41.372Z,1.50
2018-12-25T08:06:28.658Z,1.50
2018-12-25T08:09:15.878Z,1.60
2018-12-25T08:12:02.792Z,1.70
2018-12-25T08:14:49.719Z,1.80
2018-12-25T08:17:37.035Z,1.90
2018-12-25T08:20:24.041Z,1.80
2018-12-25T08:23:11.457Z,1.90
2018-12-25T08:25:58.837Z,1.90
2018-12-25T08:28:46.076Z,1.90
2018-12-25T08:31:32.907Z,2.00
2018-12-25T08:34:20.171Z,2.00
2018-12-25T08:37:07.350Z,2.00
2018-12-25T08:39:53.853Z,2.10
2018-12-25T08:42:40.845Z,2.10
2018-12-25T08:45:27.973Z,2.10
2018-12-25T08:48:14.407Z,2.10
2018-12-25T08:51:00.954Z,2.10
2018-12-25T08:53:48.060Z,2.20
2018-12-25T08:56:35.255Z,2.00
2018-12-25T08:59:22.451Z,2.00
2018-12-25T09:02:09.098Z,2.00
2018-12-25T09:04:56.267Z,2.00
2018-12-25T09:07:43.242Z,2.00
2018-12-25T09:10:30.159Z,2.10
2018-12-25T09:13:17.443Z,2.20
2018-12-25T09:16:04.274Z,2.20
2018-12-25T09:18:51.580Z,2.20
2018-12-25T09:21:46.157Z,2.30
2018-12-25T09:24:27.389Z,2.40
2018-12-25T09:27:14.278Z,2.20
2018-12-25T09:30:01.328Z,2.30
2018-12-25T09:32:48.371Z,2.20
2018-12-25T09:35:35.361Z,2.40
2018-12-25T09:38:22.615Z,2.40
2018-12-25T09:41:09.555Z,2.50
2018-12-25T09:43:56.643Z,2.30
2018-12-25T09:46:43.741Z,2.20
2018-12-25T09:49:30.790Z,2.20
2018-12-25T09:52:17.595Z,2.10
2018-12-25T09:55:04.803Z,2.00
2018-12-25T09:57:51.976Z,2.00
2018-12-25T10:00:38.711Z,2.10
2018-12-25T10:03:25.892Z,2.00
2018-12-25T10:06:12.811Z,2.00
2018-12-25T10:08:59.942Z,2.10
2018-12-25T10:11:47.893Z,2.20
2018-12-25T10:14:35.163Z,2.20
2018-12-25T10:17:22.092Z,2.20
2018-12-25T10:20:09.405Z,2.20
2018-12-25T10:22:56.798Z,2.30
2018-12-25T10:25:44.201Z,2.00
2018-12-25T10:28:31.163Z,1.90
2018-12-25T10:31:18.585Z,1.90
2018-12-25T10:34:05.304Z,2.00
2018-12-25T10:36:52.297Z,2.00
2018-12-25T10:39:39.492Z,2.00
2018-12-25T10:42:26.055Z,2.20
2018-12-25T10:45:13.415Z,2.20
2018-12-25T10:48:00.595Z,2.20
2018-12-25T10:50:47.451Z,2.20
2018-12-25T10:53:34.577Z,2.20
2018-12-25T10:56:21.934Z,2.00
2018-12-25T10:59:09.215Z,2.00
2018-12-25T11:01:56.287Z,2.00
2018-12-25T11:04:43.735Z,2.10
2018-12-25T11:07:30.862Z,2.20
2018-12-25T11:10:18.223Z,2.20
2018-12-25T11:13:05.433Z,2.20
2018-12-25T11:15:52.664Z,2.30
2018-12-25T11:18:39.599Z,2.40
2018-12-25T11:24:28.563Z,2.40
2018-12-25T11:27:15.762Z,2.80
2018-12-25T11:30:03.036Z,2.70
2018-12-25T11:32:50.787Z,2.60
2018-12-25T11:35:38.075Z,2.60
2018-12-25T11:38:25.364Z,2.60
2018-12-25T11:41:12.247Z,2.60
2018-12-25T11:43:59.153Z,2.60
2018-12-25T11:46:46.255Z,2.70
2018-12-25T11:49:33.399Z,2.80
2018-12-25T11:52:28.234Z,2.80
2018-12-25T11:55:08.323Z,2.80
2018-12-25T11:57:55.519Z,2.90
2018-12-25T12:00:42.163Z,2.80
2018-12-25T12:03:28.995Z,2.90
2018-12-25T12:06:16.018Z,3.00
2018-12-25T12:09:02.783Z,2.90
2018-12-25T12:11:51.004Z,3.00
2018-12-25T12:14:38.351Z,3.00
2018-12-25T12:17:25.551Z,3.10
2018-12-25T12:20:12.746Z,3.10
2018-12-25T12:22:59.267Z,3.10
2018-12-25T12:25:46.179Z,3.20
2018-12-25T12:28:33.260Z,3.30
2018-12-25T12:31:20.214Z,3.20
2018-12-25T12:34:07.487Z,3.20
2018-12-25T12:36:54.812Z,3.20
2018-12-25T12:39:41.880Z,3.20
2018-12-25T12:42:28.479Z,3.20
2018-12-25T12:45:15.499Z,3.20
2018-12-25T12:48:02.856Z,3.20
2018-12-25T12:50:50.178Z,3.20
2018-12-25T12:53:37.355Z,3.20
2018-12-25T12:56:24.611Z,3.20
2018-12-25T12:59:11.835Z,3.30
2018-12-25T13:01:47.131Z,3.40
2018-12-25T13:04:41.487Z,3.30
2018-12-25T13:07:28.407Z,3.10
2018-12-25T13:10:15.954Z,3.00
2018-12-25T13:13:02.979Z,2.80
2018-12-25T13:23:23.122Z,2.40
2018-12-25T13:30:13.257Z,2.50
2018-12-25T13:33:00.007Z,2.60
2018-12-25T13:35:47.063Z,2.70
2018-12-25T13:38:34.186Z,2.90
2018-12-25T13:41:21.013Z,2.90
2018-12-25T13:44:08.079Z,3.00
2018-12-25T13:46:55.121Z,2.90
2018-12-25T13:52:51.442Z,3.00
2018-12-25T13:55:38.919Z,3.00
2018-12-25T13:58:26.351Z,3.00
2018-12-25T14:01:15.058Z,3.00
2018-12-25T14:04:08.943Z,3.10
2018-12-25T14:06:57.187Z,3.10
2018-12-25T14:09:44.275Z,3.10
2018-12-25T14:12:33.374Z,3.10
2018-12-25T14:15:19.986Z,3.10
2018-12-25T14:18:07.163Z,3.10
2018-12-25T14:20:54.050Z,3.10
2018-12-25T14:23:59.899Z,3.00
2018-12-25T14:26:49.575Z,2.80
2018-12-25T14:29:36.867Z,2.70
2018-12-25T14:32:23.523Z,2.90
2018-12-25T14:35:10.866Z,2.90
2018-12-25T14:37:58.018Z,2.80
2018-12-25T14:40:44.859Z,2.70
2018-12-25T14:43:31.659Z,2.80
2018-12-25T14:46:18.939Z,2.90
2018-12-25T14:49:06.445Z,3.00
2018-12-25T14:52:03.198Z,3.00
2018-12-25T14:57:52.074Z,3.10
2018-12-25T15:00:42.639Z,3.00
2018-12-25T15:06:22.983Z,3.30
2018-12-25T15:16:09.530Z,3.20
2018-12-25T15:22:22.223Z,3.20
2018-12-25T15:25:11.604Z,3.20
2018-12-25T15:28:22.454Z,3.20
2018-12-25T15:31:02.404Z,3.20
2018-12-25T15:33:49.523Z,3.10
2018-12-25T15:36:36.680Z,3.50
2018-12-25T15:39:23.988Z,3.50
2018-12-25T15:42:10.627Z,3.50
2018-12-25T15:44:57.278Z,3.40
2018-12-25T15:47:44.474Z,3.40
2018-12-25T15:50:31.910Z,3.30
2018-12-25T15:53:19.180Z,3.20
2018-12-25T15:56:06.497Z,3.20
2018-12-25T15:58:53.123Z,3.30
2018-12-25T16:01:40.439Z,3.20
2018-12-25T16:04:27.623Z,3.00
2018-12-25T16:07:14.763Z,2.70
2018-12-25T16:10:02.000Z,3.00
2018-12-25T16:12:49.100Z,3.70
2018-12-25T16:15:36.262Z,3.10
2018-12-25T16:18:23.228Z,2.90
2018-12-25T16:21:17.539Z,2.90
2018-12-25T16:24:11.886Z,2.80
2018-12-25T16:26:58.538Z,2.90
2018-12-25T16:29:44.023Z,2.90
2018-12-25T16:32:38.375Z,2.90
2018-12-25T16:35:25.150Z,2.70
2018-12-25T16:38:12.223Z,2.70
2018-12-25T16:40:58.719Z,2.70
2018-12-25T16:43:45.879Z,2.80
2018-12-25T16:46:32.934Z,2.80
2018-12-25T16:49:20.151Z,2.80
2018-12-25T16:52:07.235Z,2.80
2018-12-25T16:54:54.647Z,2.70
2018-12-25T16:57:41.727Z,2.60
2018-12-25T17:00:28.374Z,2.60
2018-12-25T17:03:15.616Z,2.50
2018-12-25T17:06:02.936Z,2.60
2018-12-25T17:08:50.039Z,2.60
2018-12-25T17:11:37.103Z,2.60
2018-12-25T17:14:24.251Z,2.50
2018-12-25T17:17:11.253Z,2.60
2018-12-25T17:19:58.330Z,2.60
2018-12-25T17:22:45.332Z,2.70
2018-12-25T17:25:32.555Z,2.70
2018-12-25T17:28:27.640Z,2.70
2018-12-25T17:31:07.783Z,2.80
2018-12-25T17:33:55.077Z,2.70
2018-12-25T17:36:42.287Z,2.60
2018-12-25T17:39:29.304Z,2.70
2018-12-25T17:42:15.975Z,2.70
2018-12-25T17:45:03.220Z,2.70
2018-12-25T17:47:50.259Z,2.80
2018-12-25T17:50:37.688Z,2.80
2018-12-25T17:53:25.178Z,2.60
2018-12-25T17:56:12.387Z,2.60
2018-12-25T17:58:59.815Z,2.70
2018-12-25T18:01:47.048Z,2.70
2018-12-25T18:04:33.876Z,2.70
2018-12-25T18:07:21.175Z,2.70
2018-12-25T18:10:07.923Z,2.70
2018-12-25T18:12:54.868Z,2.60
2018-12-25T18:15:52.207Z,2.70
2018-12-25T18:18:40.231Z,2.70
2018-12-25T18:21:27.179Z,2.70
2018-12-25T18:24:19.255Z,2.70
2018-12-25T18:27:03.802Z,2.70
2018-12-25T18:29:51.051Z,2.70
2018-12-25T18:32:37.680Z,2.70
2018-12-25T18:35:25.080Z,2.70
2018-12-25T18:38:12.504Z,2.60
2018-12-25T18:40:59.704Z,2.60
2018-12-25T18:43:47.047Z,2.60
2018-12-25T18:46:34.189Z,2.50
2018-12-25T18:49:21.438Z,2.40
2018-12-25T18:52:08.122Z,2.40
2018-12-25T18:54:55.234Z,2.40
2018-12-25T18:57:42.489Z,2.30
2018-12-25T19:06:02.270Z,2.70
2018-12-25T19:08:49.582Z,2.50
2018-12-25T19:11:36.696Z,2.50
2018-12-25T19:14:23.811Z,2.50
2018-12-25T19:17:11.070Z,2.60
2018-12-25T19:19:57.707Z,2.50
2018-12-25T19:22:44.903Z,2.40
2018-12-25T19:25:31.871Z,2.50
2018-12-25T19:28:19.328Z,2.60
2018-12-25T19:31:06.127Z,2.60
2018-12-25T19:33:53.435Z,2.70
2018-12-25T19:36:40.490Z,2.70
2018-12-25T19:39:27.707Z,2.70
2018-12-25T19:42:14.571Z,2.60
2018-12-25T19:45:01.522Z,2.60
2018-12-25T19:47:48.891Z,2.50
2018-12-25T19:50:36.239Z,2.50
2018-12-25T19:53:22.980Z,2.50
2018-12-25T19:56:10.035Z,2.50
2018-12-25T19:58:57.175Z,2.60
2018-12-25T20:01:44.033Z,2.60
2018-12-25T20:04:31.023Z,2.60
2018-12-25T20:07:18.272Z,2.60
2018-12-25T20:10:05.411Z,2.60
2018-12-25T20:12:52.275Z,2.60
2018-12-25T20:15:39.613Z,2.60
2018-12-25T20:18:26.742Z,2.70
2018-12-25T20:21:13.718Z,2.70
2018-12-25T20:24:01.368Z,2.70
2018-12-25T20:26:48.427Z,2.80
2018-12-25T20:29:35.819Z,2.70
2018-12-25T20:32:23.001Z,2.70
2018-12-25T20:35:10.279Z,2.80
2018-12-25T20:37:57.264Z,2.70
2018-12-25T20:40:44.415Z,2.70
2018-12-25T20:43:31.699Z,2.70
2018-12-25T20:46:18.686Z,2.70
2018-12-25T20:49:05.858Z,2.60
2018-12-25T20:51:53.259Z,2.60
2018-12-25T20:54:40.750Z,2.70
2018-12-25T20:57:28.170Z,2.60
2018-12-25T21:00:15.175Z,2.60
2018-12-25T21:03:02.456Z,2.40
2018-12-25T21:05:49.885Z,2.30
2018-12-25T21:08:37.027Z,2.30
2018-12-25T21:11:24.134Z,2.30
2018-12-25T21:14:11.559Z,2.30
2018-12-25T21:16:58.581Z,2.30
2018-12-25T21:19:45.291Z,2.30
2018-12-25T21:22:32.166Z,2.30
2018-12-25T21:25:19.459Z,2.30
2018-12-25T21:28:04.011Z,2.30
2018-12-25T21:30:49.470Z,2.30
2018-12-25T21:33:44.746Z,2.30
2018-12-25T21:36:31.766Z,2.30
2018-12-25T21:39:18.702Z,2.40
2018-12-25T21:42:05.999Z,2.90
2018-12-25T21:44:53.028Z,2.90
2018-12-25T21:47:41.319Z,2.80
2018-12-25T21:50:28.669Z,2.70
2018-12-25T21:53:15.811Z,2.60
2018-12-25T21:56:03.160Z,2.60
2018-12-25T21:58:50.655Z,2.50
2018-12-25T22:01:37.590Z,2.40
2018-12-25T22:04:24.459Z,2.50
2018-12-25T22:07:11.802Z,2.40
2018-12-25T22:09:58.489Z,2.40
2018-12-25T22:12:45.634Z,2.40
2018-12-25T22:15:32.239Z,2.30
2018-12-25T22:18:19.715Z,2.00
2018-12-25T22:21:06.752Z,2.20
2018-12-25T22:23:55.122Z,2.10
2018-12-25T22:26:42.341Z,2.30
2018-12-25T22:29:29.695Z,2.50
2018-12-25T22:32:16.738Z,2.30
2018-12-25T22:35:03.335Z,2.30
2018-12-25T22:37:50.315Z,2.40
2018-12-25T22:40:37.047Z,2.50
2018-12-25T22:43:23.915Z,2.40
2018-12-25T22:46:10.899Z,2.50
2018-12-25T22:48:58.213Z,2.50
2018-12-25T22:51:45.336Z,2.30
2018-12-25T22:54:32.770Z,2.30
2018-12-25T22:57:19.790Z,2.40
2018-12-25T23:00:06.675Z,2.30
2018-12-25T23:02:53.934Z,2.30
2018-12-25T23:05:40.992Z,2.30
2018-12-25T23:08:28.131Z,2.40
2018-12-25T23:11:16.303Z,2.40
2018-12-25T23:14:03.847Z,2.50
2018-12-25T23:16:50.914Z,2.40
2018-12-25T23:19:38.024Z,2.50
2018-12-25T23:22:25.244Z,2.50
2018-12-25T23:25:12.615Z,2.50
2018-12-25T23:28:00.907Z,2.50
2018-12-25T23:30:47.951Z,2.50
2018-12-25T23:33:35.195Z,2.50
2018-12-25T23:36:22.386Z,2.60
2018-12-25T23:39:09.663Z,2.60
2018-12-25T23:41:56.686Z,2.50
2018-12-25T23:44:43.895Z,2.50
2018-12-25T23:47:31.140Z,2.50
2018-12-25T23:50:18.285Z,2.50
2018-12-25T23:53:05.636Z,2.50
2018-12-25T23:55:40.845Z,2.50
2018-12-25T23:58:35.086Z,2.40
